Terminal Aerodrome Forecast
Issued by NWS Wilmington, OH

Current Version | Previous Version | Graphics & Text | Print | Product List | Glossary On
Versions: 1 2 3 4 5 6 7 8 9 10 11 12 13 14 15 16 17 18 19 20 21 22 23 24 25 26 27 28 29 30 31 32 33
000
FTUS41 KILN 142338
TAFDAY
TAF
KDAY 142338Z 1500/1524 33004KT 3SM BR OVC006
      TEMPO 1500/1502 2SM -FZDZ BR OVC003
     FM150300 35005KT P6SM OVC015
     FM150800 02004KT 4SM BR BKN035
     FM151500 07006KT P6SM BKN040=

USA.gov is the U.S. government's official web portal to all federal, state and local government web resources and services.